createdAt,value
2023-02-05T00:00:01.171Z,99.99
2023-02-05T00:01:01.145Z,99.99
2023-02-05T00:02:01.144Z,99.99
2023-02-05T00:03:01.223Z,99.99
2023-02-05T00:04:01.105Z,99.99
2023-02-05T00:05:01.139Z,99.99
2023-02-05T00:06:01.103Z,99.99
2023-02-05T00:07:01.102Z,99.99
2023-02-05T00:08:01.053Z,99.99
2023-02-05T00:09:01.053Z,99.99
2023-02-05T00:10:01.032Z,99.99
2023-02-05T00:11:01.061Z,99.99
2023-02-05T00:12:01.014Z,99.99
2023-02-05T00:13:01.002Z,99.99
2023-02-05T00:14:00.998Z,99.99
2023-02-05T00:15:00.980Z,99.99
2023-02-05T00:16:00.970Z,99.99
2023-02-05T00:17:00.972Z,99.99
2023-02-05T00:18:00.943Z,99.99
2023-02-05T00:19:00.938Z,99.99
2023-02-05T00:20:00.921Z,99.99
2023-02-05T00:21:00.926Z,99.99
2023-02-05T00:22:00.931Z,99.95
2023-02-05T00:23:00.892Z,99.85
2023-02-05T00:24:00.891Z,99.74
2023-02-05T00:25:00.880Z,99.74
2023-02-05T00:26:00.850Z,99.74
2023-02-05T00:27:00.885Z,99.64
2023-02-05T00:28:00.865Z,99.54
2023-02-05T00:29:00.844Z,99.43
2023-02-05T00:30:00.839Z,99.33
2023-02-05T00:31:00.900Z,99.22
2023-02-05T00:32:00.818Z,99.33
2023-02-05T00:33:00.798Z,99.43
2023-02-05T00:34:00.777Z,99.64
2023-02-05T00:35:00.789Z,99.59
2023-02-05T00:36:00.748Z,99.70
2023-02-05T00:37:00.743Z,99.59
2023-02-05T00:38:00.759Z,99.70
2023-02-05T00:39:00.742Z,99.59
2023-02-05T00:40:00.701Z,99.59
2023-02-05T00:41:00.733Z,99.59
2023-02-05T00:42:00.706Z,99.59
2023-02-05T00:43:00.680Z,99.59
2023-02-05T00:44:00.690Z,99.59
2023-02-05T00:45:00.660Z,99.59
2023-02-05T00:46:00.691Z,99.54
2023-02-05T00:47:00.648Z,99.54
2023-02-05T00:48:00.622Z,99.33
2023-02-05T00:49:00.612Z,99.43
2023-02-05T00:50:00.643Z,99.54
2023-02-05T00:51:00.599Z,99.74
2023-02-05T00:52:00.579Z,99.85
2023-02-05T00:53:00.572Z,99.80
2023-02-05T00:54:00.564Z,99.91
2023-02-05T00:55:00.584Z,99.70
2023-02-05T00:56:00.533Z,99.49
2023-02-05T00:57:00.522Z,99.28
2023-02-05T00:58:00.523Z,99.28
2023-02-05T00:59:00.509Z,99.07
2023-02-05T01:00:00.481Z,98.76
2023-02-05T01:01:00.516Z,98.61
2023-02-05T01:02:00.465Z,98.30
2023-02-05T01:03:00.462Z,98.20
2023-02-05T01:04:00.447Z,98.10
2023-02-05T01:05:00.447Z,98.10
2023-02-05T01:06:00.434Z,97.99
2023-02-05T01:07:00.444Z,97.89
2023-02-05T01:08:00.406Z,97.89
2023-02-05T01:09:00.403Z,97.99
2023-02-05T01:10:00.389Z,98.10
2023-02-05T01:11:00.370Z,97.99
2023-02-05T01:12:00.358Z,98.10
2023-02-05T01:13:00.377Z,98.10
2023-02-05T01:14:00.350Z,98.30
2023-02-05T01:15:00.340Z,98.30
2023-02-05T01:16:00.374Z,98.20
2023-02-05T01:17:00.310Z,98.20
2023-02-05T01:18:00.322Z,98.41
2023-02-05T01:19:00.304Z,98.51
2023-02-05T01:20:00.277Z,98.72
2023-02-05T01:21:00.266Z,98.72
2023-02-05T01:22:00.261Z,98.72
2023-02-05T01:23:00.250Z,98.72
2023-02-05T01:24:00.255Z,98.72
2023-02-05T01:25:00.238Z,98.61
2023-02-05T01:26:00.208Z,98.61
2023-02-05T01:27:00.231Z,98.57
2023-02-05T01:28:00.227Z,98.57
2023-02-05T01:29:00.209Z,98.57
2023-02-05T01:30:00.189Z,98.57
2023-02-05T01:31:00.251Z,98.51
2023-02-05T01:32:00.150Z,98.36
2023-02-05T01:33:00.138Z,98.30
2023-02-05T01:34:00.136Z,98.47
2023-02-05T01:35:00.152Z,98.57
2023-02-05T01:36:00.139Z,98.57
2023-02-05T01:37:00.092Z,98.68
2023-02-05T01:38:00.084Z,98.88
2023-02-05T01:39:00.088Z,98.99
2023-02-05T01:40:00.100Z,98.88
2023-02-05T01:41:00.106Z,98.88
2023-02-05T01:42:00.043Z,98.78
2023-02-05T01:43:00.032Z,98.57
2023-02-05T01:44:00.014Z,98.47
2023-02-05T01:45:00.022Z,98.36
2023-02-05T01:46:00.083Z,98.26
2023-02-05T01:46:59.980Z,98.32
2023-02-05T01:47:59.970Z,98.21
2023-02-05T01:48:59.955Z,98.00
2023-02-05T01:49:59.944Z,98.00
2023-02-05T01:50:59.937Z,98.00
2023-02-05T01:51:59.955Z,98.00
2023-02-05T01:52:59.916Z,97.95
2023-02-05T01:53:59.894Z,97.95
2023-02-05T01:54:59.892Z,98.05
2023-02-05T01:55:59.874Z,98.16
2023-02-05T01:56:59.861Z,98.26
2023-02-05T01:57:59.880Z,98.26
2023-02-05T01:58:59.841Z,98.26
2023-02-05T01:59:59.834Z,98.26
2023-02-05T02:00:59.830Z,98.11
2023-02-05T02:01:59.802Z,98.00
2023-02-05T02:02:59.800Z,97.90
2023-02-05T02:03:59.831Z,97.90
2023-02-05T02:04:59.781Z,97.90
2023-02-05T02:05:59.771Z,97.53
2023-02-05T02:06:59.750Z,97.22
2023-02-05T02:07:59.747Z,97.33
2023-02-05T02:08:59.738Z,97.53
2023-02-05T02:09:59.751Z,97.53
2023-02-05T02:10:59.734Z,97.74
2023-02-05T02:11:59.714Z,97.85
2023-02-05T02:12:59.700Z,98.05
2023-02-05T02:13:59.697Z,98.16
2023-02-05T02:14:59.701Z,98.26
2023-02-05T02:15:59.670Z,98.16
2023-02-05T02:16:59.648Z,98.26
2023-02-05T02:17:59.631Z,98.36
2023-02-05T02:18:59.623Z,98.36
2023-02-05T02:19:59.614Z,98.47
2023-02-05T02:20:59.626Z,98.57
2023-02-05T02:21:59.601Z,98.68
2023-02-05T02:22:59.582Z,98.68
2023-02-05T02:23:59.564Z,98.68
2023-02-05T02:24:59.560Z,98.36
2023-02-05T02:25:59.573Z,98.16
2023-02-05T02:26:59.566Z,98.16
2023-02-05T02:27:59.565Z,98.36
2023-02-05T02:28:59.509Z,98.57
2023-02-05T02:29:59.504Z,98.57
2023-02-05T02:30:59.599Z,98.57
2023-02-05T02:31:59.472Z,98.47
2023-02-05T02:32:59.493Z,98.47
2023-02-05T02:33:59.453Z,98.36
2023-02-05T02:34:59.461Z,98.16
2023-02-05T02:35:59.468Z,97.95
2023-02-05T02:36:59.442Z,97.74
2023-02-05T02:37:59.419Z,97.74
2023-02-05T02:38:59.409Z,97.64
2023-02-05T02:39:59.392Z,97.64
2023-02-05T02:40:59.393Z,97.53
2023-02-05T02:41:59.411Z,97.53
2023-02-05T02:42:59.361Z,97.43
2023-02-05T02:43:59.389Z,97.43
2023-02-05T02:44:59.334Z,97.53
2023-02-05T02:45:59.325Z,97.53
2023-02-05T02:46:59.327Z,97.59
2023-02-05T02:47:59.334Z,97.59
2023-02-05T02:48:59.294Z,97.49
2023-02-05T02:49:59.283Z,97.28
2023-02-05T02:50:59.280Z,97.22
2023-02-05T02:51:59.278Z,97.22
2023-02-05T02:52:59.277Z,97.22
2023-02-05T02:53:59.241Z,97.43
2023-02-05T02:54:59.235Z,97.53
2023-02-05T02:55:59.238Z,97.53
2023-02-05T02:56:59.211Z,97.53
2023-02-05T02:57:59.203Z,97.53
2023-02-05T02:58:59.220Z,97.64
2023-02-05T02:59:59.178Z,97.74
2023-02-05T03:00:59.195Z,97.85
2023-02-05T03:01:59.170Z,97.85
2023-02-05T03:02:59.156Z,98.05
2023-02-05T03:03:59.172Z,98.16
2023-02-05T03:04:59.130Z,98.36
2023-02-05T03:05:59.114Z,98.47
2023-02-05T03:06:59.144Z,98.42
2023-02-05T03:07:59.093Z,98.42
2023-02-05T03:08:59.085Z,98.32
2023-02-05T03:09:59.069Z,98.21
2023-02-05T03:10:59.063Z,98.11
2023-02-05T03:11:59.069Z,98.11
2023-02-05T03:12:59.033Z,98.00
2023-02-05T03:13:59.020Z,97.80
2023-02-05T03:14:59.012Z,97.80
2023-02-05T03:15:59.053Z,97.80
2023-02-05T03:16:58.996Z,97.80
2023-02-05T03:17:59.001Z,97.90
2023-02-05T03:18:58.979Z,97.90
2023-02-05T03:19:58.969Z,98.00
2023-02-05T03:20:58.942Z,97.90
2023-02-05T03:21:58.972Z,97.90
2023-02-05T03:22:58.929Z,98.00
2023-02-05T03:23:58.920Z,98.00
2023-02-05T03:24:58.917Z,98.11
2023-02-05T03:25:58.890Z,98.11
2023-02-05T03:26:58.889Z,98.21
2023-02-05T03:27:58.935Z,98.11
2023-02-05T03:28:58.861Z,98.00
2023-02-05T03:29:58.840Z,97.90
2023-02-05T03:30:58.860Z,97.90
2023-02-05T03:31:58.828Z,98.00
2023-02-05T03:32:58.847Z,98.11
2023-02-05T03:33:58.798Z,98.21
2023-02-05T03:34:58.810Z,98.42
2023-02-05T03:35:58.788Z,98.42
2023-02-05T03:36:58.773Z,98.42
2023-02-05T03:38:05.826Z,98.52
2023-02-05T03:38:58.763Z,98.52
2023-02-05T03:39:58.738Z,98.42
2023-02-05T03:40:58.725Z,98.52
2023-02-05T03:41:58.739Z,98.63
2023-02-05T03:42:58.717Z,98.63
2023-02-05T03:43:58.727Z,98.73
2023-02-05T03:44:58.710Z,98.94
2023-02-05T03:45:58.691Z,98.94
2023-02-05T03:46:58.668Z,99.04
2023-02-05T03:47:58.688Z,99.15
2023-02-05T03:48:58.657Z,99.25
2023-02-05T03:49:58.636Z,99.35
2023-02-05T03:50:58.639Z,99.35
2023-02-05T03:51:58.618Z,99.35
2023-02-05T03:52:58.596Z,99.40
2023-02-05T03:53:58.603Z,99.40
2023-02-05T03:54:58.567Z,99.61
2023-02-05T03:55:58.601Z,99.82
2023-02-05T03:56:58.553Z,99.92
2023-02-05T03:57:58.535Z,99.99
2023-02-05T03:58:58.525Z,99.99
2023-02-05T03:59:58.522Z,99.98
2023-02-05T04:00:58.547Z,99.82
2023-02-05T04:01:58.510Z,99.56
2023-02-05T04:02:58.508Z,99.46
2023-02-05T04:03:58.469Z,99.25
2023-02-05T04:04:58.461Z,99.15
2023-02-05T04:05:58.453Z,99.04
2023-02-05T04:06:58.431Z,98.94
2023-02-05T04:07:58.428Z,98.83
2023-02-05T04:08:58.434Z,98.73
2023-02-05T04:09:58.398Z,98.73
2023-02-05T04:10:58.390Z,98.73
2023-02-05T04:11:58.370Z,98.63
2023-02-05T04:12:58.384Z,98.52
2023-02-05T04:13:58.380Z,98.52
2023-02-05T04:14:58.343Z,98.42
2023-02-05T04:15:58.329Z,98.42
2023-02-05T04:16:58.322Z,98.42
2023-02-05T04:17:58.326Z,98.32
2023-02-05T04:18:58.328Z,98.32
2023-02-05T04:19:58.292Z,98.42
2023-02-05T04:20:58.271Z,98.42
2023-02-05T04:21:58.262Z,98.32
2023-02-05T04:22:58.260Z,98.21
2023-02-05T04:23:58.285Z,98.21
2023-02-05T04:24:58.250Z,98.32
2023-02-05T04:25:58.220Z,98.52
2023-02-05T04:26:58.211Z,98.42
2023-02-05T04:27:58.242Z,98.42
2023-02-05T04:28:58.190Z,98.32
2023-02-05T04:29:58.265Z,98.11
2023-02-05T04:30:58.185Z,98.00
2023-02-05T04:31:58.177Z,97.90
2023-02-05T04:32:58.146Z,97.90
2023-02-05T04:33:58.134Z,97.90
2023-02-05T04:34:58.124Z,97.90
2023-02-05T04:35:58.161Z,98.00
2023-02-05T04:36:58.105Z,98.11
2023-02-05T04:37:58.099Z,98.32
2023-02-05T04:38:58.084Z,98.42
2023-02-05T04:39:58.076Z,98.63
2023-02-05T04:40:58.078Z,98.83
2023-02-05T04:41:58.055Z,99.15
2023-02-05T04:42:58.055Z,99.35
2023-02-05T04:43:58.026Z,99.56
2023-02-05T04:44:58.015Z,99.77
2023-02-05T04:45:58.034Z,99.98
2023-02-05T04:46:58.027Z,99.99
2023-02-05T04:47:57.987Z,99.99
2023-02-05T04:48:57.978Z,99.99
2023-02-05T04:49:57.986Z,99.99
2023-02-05T04:50:57.948Z,99.99
2023-02-05T04:51:57.965Z,99.99
2023-02-05T04:52:57.927Z,99.99
2023-02-05T04:53:57.917Z,99.99
2023-02-05T04:54:57.909Z,99.99
2023-02-05T04:55:57.898Z,99.99
2023-02-05T04:56:57.915Z,99.99
2023-02-05T04:57:57.890Z,99.99
2023-02-05T04:58:57.866Z,99.99
2023-02-05T04:59:57.870Z,99.99
2023-02-05T05:00:57.972Z,99.99
2023-02-05T05:01:57.836Z,99.99
2023-02-05T05:02:57.864Z,99.99
2023-02-05T05:03:57.818Z,99.99
2023-02-05T05:04:57.801Z,99.99
2023-02-05T05:05:57.787Z,99.99
2023-02-05T05:06:57.774Z,99.99
2023-02-05T05:07:57.795Z,99.99
2023-02-05T05:08:57.772Z,99.99
2023-02-05T05:09:57.747Z,99.99
2023-02-05T05:10:57.732Z,99.99
2023-02-05T05:11:57.725Z,99.99
2023-02-05T05:12:57.709Z,99.99
2023-02-05T05:13:57.718Z,99.99
2023-02-05T05:14:57.688Z,99.99
2023-02-05T05:15:57.716Z,99.99
2023-02-05T05:16:57.668Z,99.99
2023-02-05T05:17:57.655Z,99.99
2023-02-05T05:18:57.671Z,99.99
2023-02-05T05:19:57.640Z,99.99
2023-02-05T05:20:57.619Z,99.99
2023-02-05T05:21:57.620Z,99.99
2023-02-05T05:22:57.596Z,99.99
2023-02-05T05:23:57.596Z,99.99
2023-02-05T05:24:57.628Z,99.99
2023-02-05T05:25:57.567Z,99.99
2023-02-05T05:26:57.559Z,99.99
2023-02-05T05:27:57.588Z,99.99
2023-02-05T05:28:57.544Z,99.99
2023-02-05T05:29:57.528Z,99.99
2023-02-05T05:30:57.613Z,99.99
2023-02-05T05:31:57.564Z,99.99
2023-02-05T05:32:57.493Z,99.99
2023-02-05T05:33:57.479Z,99.99
2023-02-05T05:34:57.466Z,99.99
2023-02-05T05:35:57.460Z,99.99
2023-02-05T05:36:57.472Z,99.99
2023-02-05T05:37:57.434Z,99.99
2023-02-05T05:38:57.419Z,99.99
2023-02-05T05:39:57.419Z,99.99
2023-02-05T05:40:57.400Z,99.99
2023-02-05T05:41:57.408Z,99.99
2023-02-05T05:42:57.402Z,99.99
2023-02-05T05:43:57.378Z,99.99
2023-02-05T05:44:57.357Z,99.99
2023-02-05T05:45:57.383Z,99.99
2023-02-05T05:46:57.358Z,99.99
2023-02-05T05:47:57.342Z,99.99
2023-02-05T05:48:57.510Z,99.99
2023-02-05T05:49:57.311Z,99.99
2023-02-05T05:50:57.298Z,99.99
2023-02-05T05:51:57.286Z,99.99
2023-02-05T05:52:57.298Z,99.99
2023-02-05T05:53:57.259Z,99.99
2023-02-05T05:54:57.258Z,99.99
2023-02-05T05:55:57.240Z,99.99
2023-02-05T05:56:57.228Z,99.99
2023-02-05T05:57:57.242Z,99.99
2023-02-05T05:58:57.197Z,99.99
2023-02-05T05:59:57.205Z,99.99
2023-02-05T06:00:57.177Z,99.99
2023-02-05T06:01:57.172Z,99.99
2023-02-05T06:02:57.186Z,99.99
2023-02-05T06:03:57.163Z,99.99
2023-02-05T06:04:57.135Z,99.99
2023-02-05T06:05:57.126Z,99.99
2023-02-05T06:06:57.116Z,99.99
2023-02-05T06:07:57.106Z,99.99
2023-02-05T06:08:57.113Z,99.99
2023-02-05T06:09:57.087Z,99.99
2023-02-05T06:10:57.071Z,99.99
2023-02-05T06:11:57.066Z,99.99
2023-02-05T06:12:57.045Z,99.99
2023-02-05T06:13:57.033Z,99.99
2023-02-05T06:14:57.042Z,99.99
2023-02-05T06:15:57.060Z,99.99
2023-02-05T06:16:57.001Z,99.99
2023-02-05T06:17:56.994Z,99.99
2023-02-05T06:18:56.994Z,99.99
2023-02-05T06:19:57.003Z,99.99
2023-02-05T06:20:57.030Z,99.99
2023-02-05T06:21:56.951Z,99.99
2023-02-05T06:22:56.934Z,99.99
2023-02-05T06:23:56.932Z,99.99
2023-02-05T06:24:56.912Z,99.99
2023-02-05T06:25:56.923Z,99.99
2023-02-05T06:26:56.893Z,99.99
2023-02-05T06:27:56.938Z,99.99
2023-02-05T06:28:56.870Z,99.99
2023-02-05T06:29:56.862Z,99.99
2023-02-05T06:30:57.035Z,99.99
2023-02-05T06:31:56.891Z,99.99
2023-02-05T06:32:56.826Z,99.99
2023-02-05T06:33:56.823Z,99.99
2023-02-05T06:34:56.803Z,99.99
2023-02-05T06:35:56.792Z,99.99
2023-02-05T06:36:56.789Z,99.99
2023-02-05T06:37:56.816Z,99.99
2023-02-05T06:38:56.762Z,99.99
2023-02-05T06:39:56.786Z,99.99
2023-02-05T06:40:56.743Z,99.99
2023-02-05T06:41:56.756Z,99.99
2023-02-05T06:42:56.746Z,99.99
2023-02-05T06:43:56.717Z,99.99
2023-02-05T06:44:56.695Z,99.99
2023-02-05T06:45:56.684Z,99.99
2023-02-05T06:46:56.689Z,99.99
2023-02-05T06:47:56.687Z,99.99
2023-02-05T06:48:56.654Z,99.99
2023-02-05T06:49:56.662Z,99.99
2023-02-05T06:50:56.644Z,99.99
2023-02-05T06:51:56.622Z,99.99
2023-02-05T06:52:56.673Z,99.99
2023-02-05T06:53:56.605Z,99.99
2023-02-05T06:54:56.592Z,99.99
2023-02-05T06:55:56.578Z,99.99
2023-02-05T06:56:56.567Z,99.99
2023-02-05T06:57:56.554Z,99.99
2023-02-05T06:58:56.569Z,99.99
2023-02-05T06:59:56.537Z,99.99
2023-02-05T07:00:56.537Z,99.99
2023-02-05T07:01:56.532Z,99.99
2023-02-05T07:02:56.552Z,99.99
2023-02-05T07:03:56.496Z,99.99
2023-02-05T07:04:56.496Z,99.99
2023-02-05T07:05:56.466Z,99.99
2023-02-05T07:06:56.455Z,99.99
2023-02-05T07:07:56.447Z,99.99
2023-02-05T07:08:56.443Z,99.99
2023-02-05T07:09:56.433Z,99.99
2023-02-05T07:10:56.445Z,99.99
2023-02-05T07:11:56.401Z,99.99
2023-02-05T07:12:56.389Z,99.99
2023-02-05T07:13:56.403Z,99.99
2023-02-05T07:14:56.379Z,99.99
2023-02-05T07:15:56.418Z,99.99
2023-02-05T07:16:56.375Z,99.99
2023-02-05T07:17:56.334Z,99.99
2023-02-05T07:18:56.321Z,99.99
2023-02-05T07:19:56.321Z,99.99
2023-02-05T07:20:56.308Z,99.99
2023-02-05T07:21:56.332Z,99.99
2023-02-05T07:22:56.280Z,99.99
2023-02-05T07:23:56.283Z,99.99
2023-02-05T07:24:56.261Z,99.99
2023-02-05T07:25:56.280Z,99.99
2023-02-05T07:26:56.278Z,99.99
2023-02-05T07:27:56.265Z,99.99
2023-02-05T07:28:56.225Z,99.99
2023-02-05T07:29:56.203Z,99.99
2023-02-05T07:30:56.204Z,99.99
2023-02-05T07:31:56.227Z,99.99
2023-02-05T07:32:56.204Z,99.99
2023-02-05T07:33:56.171Z,99.99
2023-02-05T07:34:56.153Z,99.99
2023-02-05T07:35:56.155Z,99.99
2023-02-05T07:36:56.228Z,99.99
2023-02-05T07:37:56.121Z,99.99
2023-02-05T07:38:56.100Z,99.99
2023-02-05T07:39:56.090Z,99.99
2023-02-05T07:40:56.090Z,99.99
2023-02-05T07:41:56.069Z,99.99
2023-02-05T07:42:56.078Z,99.99
2023-02-05T07:43:56.048Z,99.99
2023-02-05T07:44:56.037Z,99.99
2023-02-05T07:45:56.028Z,99.99
2023-02-05T07:46:56.042Z,99.99
2023-02-05T07:47:56.028Z,99.99
2023-02-05T07:48:55.985Z,99.99
2023-02-05T07:49:55.982Z,99.99
2023-02-05T07:50:55.964Z,99.99
2023-02-05T07:51:55.958Z,99.99
2023-02-05T07:52:55.997Z,99.99
2023-02-05T07:53:55.943Z,99.99
2023-02-05T07:54:55.924Z,99.99
2023-02-05T07:55:55.922Z,99.99
2023-02-05T07:56:55.906Z,99.99
2023-02-05T07:57:55.913Z,99.99
2023-02-05T07:58:55.884Z,99.99
2023-02-05T07:59:55.866Z,99.99
2023-02-05T08:00:55.870Z,99.99
2023-02-05T08:01:55.844Z,99.99
2023-02-05T08:02:55.856Z,99.99
2023-02-05T08:03:55.865Z,99.99
2023-02-05T08:04:55.812Z,99.99
2023-02-05T08:05:55.795Z,99.99
2023-02-05T08:06:55.793Z,99.99
2023-02-05T08:07:55.804Z,99.99
2023-02-05T08:08:55.778Z,99.99
2023-02-05T08:09:55.757Z,99.99
2023-02-05T08:10:55.745Z,99.99
2023-02-05T08:11:55.732Z,99.99
2023-02-05T08:12:55.723Z,99.99
2023-02-05T08:13:55.744Z,99.99
2023-02-05T08:14:55.726Z,99.99
2023-02-05T08:15:55.721Z,99.99
2023-02-05T08:16:55.680Z,99.99
2023-02-05T08:17:55.664Z,99.99
2023-02-05T08:18:55.669Z,99.99
2023-02-05T08:19:55.667Z,99.99
2023-02-05T08:20:55.649Z,99.99
2023-02-05T08:21:55.632Z,99.99
2023-02-05T08:22:55.609Z,99.99
2023-02-05T08:23:55.626Z,99.99
2023-02-05T08:24:55.586Z,99.99
2023-02-05T08:25:55.584Z,99.99
2023-02-05T08:26:55.570Z,99.99
2023-02-05T08:27:55.627Z,99.99
2023-02-05T08:28:55.577Z,99.99
2023-02-05T08:29:55.568Z,99.99
2023-02-05T08:30:55.574Z,99.99
2023-02-05T08:31:55.609Z,99.99
2023-02-05T08:32:55.505Z,99.99
2023-02-05T08:33:55.497Z,99.99
2023-02-05T08:34:55.506Z,99.99
2023-02-05T08:35:55.479Z,99.99
2023-02-05T08:36:55.457Z,99.99
2023-02-05T08:37:55.449Z,99.99
2023-02-05T08:38:55.446Z,99.99
2023-02-05T08:39:55.449Z,99.99
2023-02-05T08:40:55.430Z,99.99
2023-02-05T08:41:57.050Z,99.99
2023-02-05T08:42:55.409Z,99.99
2023-02-05T08:43:55.387Z,99.99
2023-02-05T08:44:55.395Z,99.99
2023-02-05T08:45:55.377Z,99.99
2023-02-05T08:46:55.348Z,99.99
2023-02-05T08:47:55.340Z,99.99
2023-02-05T08:48:55.335Z,99.99
2023-02-05T08:49:55.320Z,99.99
2023-02-05T08:50:55.336Z,99.99
2023-02-05T08:51:55.295Z,99.99
2023-02-05T08:52:55.288Z,99.99
2023-02-05T08:53:55.284Z,99.99
2023-02-05T08:54:55.259Z,99.99
2023-02-05T08:55:55.260Z,99.99
2023-02-05T08:56:55.273Z,99.99
2023-02-05T08:57:55.380Z,99.99
2023-02-05T08:58:55.271Z,99.99
2023-02-05T08:59:55.248Z,99.99
2023-02-05T09:00:55.485Z,99.99
2023-02-05T09:01:55.392Z,99.99
2023-02-05T09:02:55.260Z,99.99
2023-02-05T09:03:55.188Z,99.99
2023-02-05T09:05:07.624Z,99.99
2023-02-05T09:05:57.041Z,99.99
2023-02-05T09:06:55.232Z,99.99
2023-02-05T09:07:55.171Z,99.99
2023-02-05T09:08:55.290Z,99.99
2023-02-05T09:09:55.117Z,99.99
2023-02-05T09:10:55.160Z,99.99
2023-02-05T09:11:55.417Z,99.99
2023-02-05T09:12:55.122Z,99.99
2023-02-05T09:13:55.256Z,99.99
2023-02-05T09:14:55.490Z,99.99
2023-02-05T09:15:55.114Z,99.99
2023-02-05T09:16:55.174Z,99.99
2023-02-05T09:17:55.070Z,99.99
2023-02-05T09:18:55.036Z,99.99
2023-02-05T09:19:55.010Z,99.99
2023-02-05T09:20:55.199Z,99.99
2023-02-05T09:21:55.042Z,99.99
2023-02-05T09:22:55.037Z,99.99
2023-02-05T09:23:54.995Z,99.99
2023-02-05T09:24:54.971Z,99.99
2023-02-05T09:25:54.971Z,99.99
2023-02-05T09:26:54.924Z,99.99
2023-02-05T09:27:54.952Z,99.99
2023-02-05T09:28:54.917Z,99.99
2023-02-05T09:29:55.001Z,99.99
2023-02-05T09:30:54.954Z,99.99
2023-02-05T09:31:54.955Z,99.99
2023-02-05T09:32:55.049Z,99.99
2023-02-05T09:33:55.066Z,99.99
2023-02-05T09:34:54.972Z,99.99
2023-02-05T09:35:54.860Z,99.99
2023-02-05T09:36:54.965Z,99.99
2023-02-05T09:38:01.928Z,99.99
2023-02-05T09:39:04.941Z,99.99
2023-02-05T09:40:20.166Z,99.99
2023-02-05T09:40:55.784Z,99.99
2023-02-05T09:41:54.776Z,99.99
2023-02-05T09:42:54.820Z,99.99
2023-02-05T09:43:54.741Z,99.99
2023-02-05T09:44:54.752Z,99.99
2023-02-05T09:45:54.757Z,99.99
2023-02-05T09:46:54.716Z,99.99
2023-02-05T09:47:54.685Z,99.99
2023-02-05T09:48:54.674Z,99.99
2023-02-05T09:49:54.666Z,99.99
2023-02-05T09:50:55.343Z,99.99
2023-02-05T09:51:54.636Z,99.99
2023-02-05T09:52:54.633Z,99.99
2023-02-05T09:53:54.613Z,99.99
2023-02-05T09:54:54.633Z,99.99
2023-02-05T09:55:54.586Z,99.99
2023-02-05T09:56:54.589Z,99.99
2023-02-05T09:57:54.571Z,99.99
2023-02-05T09:58:54.571Z,99.99
2023-02-05T09:59:54.601Z,99.99
2023-02-05T10:00:54.542Z,99.99
2023-02-05T10:01:54.532Z,99.99
2023-02-05T10:02:54.524Z,99.99
2023-02-05T10:03:54.506Z,99.99
2023-02-05T10:04:54.489Z,99.99
2023-02-05T10:05:54.534Z,99.99
2023-02-05T10:06:54.508Z,99.99
2023-02-05T10:07:54.461Z,99.99
2023-02-05T10:08:54.443Z,99.99
2023-02-05T10:09:54.434Z,99.99
2023-02-05T10:10:54.430Z,99.99
2023-02-05T10:11:54.432Z,99.99
2023-02-05T10:12:54.398Z,99.99
2023-02-05T10:13:54.390Z,99.99
2023-02-05T10:14:54.380Z,99.99
2023-02-05T10:15:54.402Z,99.99
2023-02-05T10:16:54.390Z,99.99
2023-02-05T10:17:54.340Z,99.99
2023-02-05T10:18:54.340Z,99.99
2023-02-05T10:19:54.321Z,99.99
2023-02-05T10:20:54.324Z,99.99
2023-02-05T10:21:54.327Z,99.99
2023-02-05T10:22:54.296Z,99.99
2023-02-05T10:23:54.282Z,99.99
2023-02-05T10:24:54.269Z,99.99
2023-02-05T10:25:54.250Z,99.99
2023-02-05T10:26:54.281Z,99.99
2023-02-05T10:27:54.347Z,99.99
2023-02-05T10:28:54.275Z,99.99
2023-02-05T10:29:54.228Z,99.99
2023-02-05T10:30:54.295Z,99.99
2023-02-05T10:31:54.373Z,99.99
2023-02-05T10:32:54.188Z,99.99
2023-02-05T10:33:54.174Z,99.99
2023-02-05T10:34:54.167Z,99.99
2023-02-05T10:35:54.158Z,99.99
2023-02-05T10:36:54.145Z,99.99
2023-02-05T10:37:54.160Z,99.99
2023-02-05T10:38:54.125Z,99.99
2023-02-05T10:39:54.126Z,99.99
2023-02-05T10:40:54.104Z,99.99
2023-02-05T10:41:54.087Z,99.99
2023-02-05T10:42:54.075Z,99.99
2023-02-05T10:43:54.056Z,99.99
2023-02-05T10:44:54.074Z,99.99
2023-02-05T10:45:54.038Z,99.99
2023-02-05T10:46:54.044Z,99.99
2023-02-05T10:47:54.021Z,99.99
2023-02-05T10:48:54.012Z,99.99
2023-02-05T10:49:55.316Z,99.99
2023-02-05T10:50:54.013Z,99.99
2023-02-05T10:51:53.975Z,99.99
2023-02-05T10:52:53.983Z,99.99
2023-02-05T10:53:53.953Z,99.99
2023-02-05T10:54:53.971Z,99.99
2023-02-05T10:55:53.935Z,99.99
2023-02-05T10:56:53.915Z,99.99
2023-02-05T10:57:53.903Z,99.99
2023-02-05T10:58:53.895Z,99.99
2023-02-05T10:59:53.894Z,99.99
2023-02-05T11:00:53.895Z,99.99
2023-02-05T11:01:53.877Z,99.99
2023-02-05T11:02:53.896Z,99.99
2023-02-05T11:03:53.845Z,99.99
2023-02-05T11:04:53.826Z,99.99
2023-02-05T11:05:53.864Z,99.99
2023-02-05T11:06:53.827Z,99.99
2023-02-05T11:07:53.803Z,99.99
2023-02-05T11:08:53.784Z,99.99
2023-02-05T11:09:53.772Z,99.99
2023-02-05T11:10:53.762Z,99.99
2023-02-05T11:11:53.777Z,99.99
2023-02-05T11:12:53.746Z,99.99
2023-02-05T11:13:53.725Z,99.99
2023-02-05T11:14:53.723Z,99.99
2023-02-05T11:15:53.759Z,99.99
2023-02-05T11:16:53.706Z,99.99
2023-02-05T11:17:53.684Z,99.99
2023-02-05T11:18:53.675Z,99.99
2023-02-05T11:19:53.665Z,99.99
2023-02-05T11:20:53.681Z,99.99
2023-02-05T11:21:53.634Z,99.99
2023-02-05T11:22:53.635Z,99.99
2023-02-05T11:23:53.618Z,99.99
2023-02-05T11:24:53.616Z,99.99
2023-02-05T11:25:53.596Z,99.99
2023-02-05T11:26:53.623Z,99.99
2023-02-05T11:27:53.655Z,99.99
2023-02-05T11:28:53.563Z,99.99
2023-02-05T11:29:53.549Z,99.99
2023-02-05T11:30:53.774Z,99.99
2023-02-05T11:31:53.677Z,99.99
2023-02-05T11:32:53.548Z,99.99
2023-02-05T11:33:53.506Z,99.99
2023-02-05T11:34:53.504Z,99.99
2023-02-05T11:35:53.496Z,99.99
2023-02-05T11:36:53.502Z,99.99
2023-02-05T11:37:53.495Z,99.99
2023-02-05T11:38:53.475Z,99.99
2023-02-05T11:39:53.457Z,99.99
2023-02-05T11:40:53.437Z,99.99
2023-02-05T11:41:53.449Z,99.99
2023-02-05T11:42:53.416Z,99.99
2023-02-05T11:43:53.438Z,99.99
2023-02-05T11:44:53.394Z,99.99
2023-02-05T11:45:53.383Z,99.99
2023-02-05T11:46:53.491Z,99.99
2023-02-05T11:47:53.364Z,99.99
2023-02-05T11:48:53.367Z,99.99
2023-02-05T11:49:53.337Z,99.99
2023-02-05T11:50:53.324Z,99.99
2023-02-05T11:51:53.318Z,99.99
2023-02-05T11:52:53.306Z,99.99
2023-02-05T11:53:53.332Z,99.99
2023-02-05T11:54:53.286Z,99.99
2023-02-05T11:55:53.275Z,99.99
2023-02-05T11:56:53.268Z,99.99
2023-02-05T11:57:53.248Z,99.99
2023-02-05T11:58:53.249Z,99.99
2023-02-05T11:59:53.251Z,99.99
2023-02-05T12:00:53.226Z,99.99
2023-02-05T12:01:53.241Z,99.99
2023-02-05T12:02:53.281Z,99.99
2023-02-05T12:03:53.192Z,99.99
2023-02-05T12:04:53.200Z,99.99
2023-02-05T12:05:53.193Z,99.99
2023-02-05T12:06:53.159Z,99.99
2023-02-05T12:07:53.140Z,99.99
2023-02-05T12:08:53.144Z,99.99
2023-02-05T12:09:53.145Z,99.99
2023-02-05T12:10:53.132Z,99.99
2023-02-05T12:11:53.101Z,99.99
2023-02-05T12:12:53.095Z,99.99
2023-02-05T12:13:53.084Z,99.99
2023-02-05T12:14:53.080Z,99.99
2023-02-05T12:15:53.111Z,99.99
2023-02-05T12:16:53.049Z,99.99
2023-02-05T12:17:53.041Z,99.99
2023-02-05T12:18:53.023Z,99.99
2023-02-05T12:19:53.033Z,99.99
2023-02-05T12:20:53.011Z,99.99
2023-02-05T12:21:52.993Z,99.99
2023-02-05T12:22:52.981Z,99.99
2023-02-05T12:23:52.995Z,99.99
2023-02-05T12:24:52.961Z,99.99
2023-02-05T12:25:52.981Z,99.99
2023-02-05T12:26:52.942Z,99.99
2023-02-05T12:27:52.997Z,99.99
2023-02-05T12:28:52.926Z,99.99
2023-02-05T12:29:52.911Z,99.99
2023-02-05T12:30:52.922Z,99.99
2023-02-05T12:31:52.995Z,99.99
2023-02-05T12:32:52.873Z,99.99
2023-02-05T12:33:52.870Z,99.99
2023-02-05T12:34:52.849Z,99.99
2023-02-05T12:35:52.870Z,99.99
2023-02-05T12:36:52.830Z,99.99
2023-02-05T12:37:52.828Z,99.99
2023-02-05T12:38:52.809Z,99.99
2023-02-05T12:39:52.801Z,99.99
2023-02-05T12:40:52.781Z,99.99
2023-02-05T12:41:52.799Z,99.99
2023-02-05T12:42:52.769Z,99.99
2023-02-05T12:43:52.756Z,99.99
2023-02-05T12:44:52.739Z,99.99
2023-02-05T12:45:52.770Z,99.99
2023-02-05T12:46:52.721Z,99.99
2023-02-05T12:47:52.709Z,99.99
2023-02-05T12:48:52.699Z,99.99
2023-02-05T12:49:52.696Z,99.99
2023-02-05T12:50:52.699Z,99.57
2023-02-05T12:51:52.668Z,99.72